createdAt,value
2023-03-29T00:00:58.401Z,194.64
2023-03-29T00:01:58.390Z,193.39
2023-03-29T00:02:58.483Z,194.35
2023-03-29T00:04:00.448Z,194.43
2023-03-29T00:04:58.395Z,194.13
2023-03-29T00:05:58.373Z,195.08
2023-03-29T00:06:58.372Z,193.78
2023-03-29T00:07:58.332Z,193.54
2023-03-29T00:08:58.312Z,193.99
2023-03-29T00:09:58.286Z,194.23
2023-03-29T00:10:58.266Z,193.84
2023-03-29T00:11:58.246Z,195.16
2023-03-29T00:12:58.228Z,194.41
2023-03-29T00:13:58.210Z,195.16
2023-03-29T00:14:58.180Z,194.36
2023-03-29T00:15:58.156Z,195.18
2023-03-29T00:16:58.180Z,194.99
2023-03-29T00:17:58.197Z,194.38
2023-03-29T00:18:58.105Z,194.81
2023-03-29T00:19:58.085Z,194.48
2023-03-29T00:20:58.063Z,194.57
2023-03-29T00:21:58.045Z,194.14
2023-03-29T00:22:58.029Z,193.37
2023-03-29T00:23:58.003Z,193.96
2023-03-29T00:24:57.996Z,194.12
2023-03-29T00:25:57.972Z,194.17
2023-03-29T00:26:57.957Z,194.27
2023-03-29T00:27:57.939Z,193.78
2023-03-29T00:28:57.916Z,193.93
2023-03-29T00:29:58.918Z,193.73
2023-03-29T00:30:57.910Z,193.74
2023-03-29T00:31:57.901Z,193.26
2023-03-29T00:32:57.920Z,192.92
2023-03-29T00:33:57.834Z,193.18
2023-03-29T00:34:57.812Z,192.79
2023-03-29T00:35:57.843Z,192.94
2023-03-29T00:36:57.772Z,192.63
2023-03-29T00:37:57.757Z,193.31
2023-03-29T00:38:57.727Z,193.80
2023-03-29T00:39:57.710Z,193.81
2023-03-29T00:40:57.726Z,193.09
2023-03-29T00:41:57.790Z,193.27
2023-03-29T00:42:57.769Z,193.30
2023-03-29T00:43:57.809Z,193.42
2023-03-29T00:44:57.819Z,193.40
2023-03-29T00:45:57.923Z,194.03
2023-03-29T00:46:57.872Z,193.37
2023-03-29T00:47:58.003Z,193.69
2023-03-29T00:48:57.928Z,193.50
2023-03-29T00:49:57.959Z,193.18
2023-03-29T00:50:58.384Z,191.81
2023-03-29T00:51:58.005Z,192.36
2023-03-29T00:52:58.015Z,191.51
2023-03-29T00:53:58.048Z,192.16
2023-03-29T00:54:58.072Z,192.84
2023-03-29T00:55:58.100Z,193.17
2023-03-29T00:56:58.131Z,192.90
2023-03-29T00:57:58.110Z,192.60
2023-03-29T00:58:58.115Z,192.41
2023-03-29T00:59:58.112Z,192.85
2023-03-29T01:00:58.128Z,192.89
2023-03-29T01:01:58.247Z,192.88
2023-03-29T01:02:58.274Z,192.32
2023-03-29T01:03:58.189Z,191.74
2023-03-29T01:04:58.196Z,191.95
2023-03-29T01:05:58.236Z,190.81
2023-03-29T01:06:58.269Z,191.80
2023-03-29T01:07:58.294Z,191.32
2023-03-29T01:08:58.203Z,192.14
2023-03-29T01:09:58.217Z,190.97
2023-03-29T01:10:58.220Z,191.57
2023-03-29T01:11:58.230Z,191.50
2023-03-29T01:12:58.225Z,192.17
2023-03-29T01:13:58.242Z,191.44
2023-03-29T01:14:58.253Z,191.23
2023-03-29T01:15:58.283Z,190.64
2023-03-29T01:16:58.348Z,191.33
2023-03-29T01:17:58.464Z,190.62
2023-03-29T01:18:58.312Z,190.09
2023-03-29T01:19:58.365Z,190.02
2023-03-29T01:20:58.309Z,190.22
2023-03-29T01:21:58.312Z,189.84
2023-03-29T01:22:58.326Z,190.36
2023-03-29T01:23:58.404Z,189.78
2023-03-29T01:24:58.345Z,189.90
2023-03-29T01:25:58.351Z,189.47
2023-03-29T01:26:58.352Z,189.94
2023-03-29T01:27:58.381Z,190.51
2023-03-29T01:28:58.366Z,191.26
2023-03-29T01:29:58.428Z,190.07
2023-03-29T01:30:58.396Z,190.90
2023-03-29T01:31:58.431Z,189.78
2023-03-29T01:32:58.475Z,191.11
2023-03-29T01:33:58.477Z,190.80
2023-03-29T01:34:58.499Z,190.85
2023-03-29T01:35:58.634Z,190.36
2023-03-29T01:36:58.575Z,190.02
2023-03-29T01:37:58.582Z,189.76
2023-03-29T01:38:58.618Z,190.36
2023-03-29T01:39:58.694Z,189.39
2023-03-29T01:40:58.682Z,191.29
2023-03-29T01:41:58.705Z,189.83
2023-03-29T01:42:58.734Z,189.96
2023-03-29T01:43:58.762Z,189.53
2023-03-29T01:44:58.827Z,190.05
2023-03-29T01:45:58.847Z,190.60
2023-03-29T01:46:58.837Z,190.46
2023-03-29T01:47:58.911Z,190.70
2023-03-29T01:48:58.901Z,191.05
2023-03-29T01:49:58.936Z,189.80
2023-03-29T01:50:59.055Z,190.30
2023-03-29T01:51:58.972Z,190.33
2023-03-29T01:52:59.008Z,191.37
2023-03-29T01:53:59.031Z,189.41
2023-03-29T01:54:59.063Z,190.68
2023-03-29T01:55:59.095Z,191.47
2023-03-29T01:56:59.156Z,191.41
2023-03-29T01:57:59.162Z,190.30
2023-03-29T01:58:59.169Z,190.46
2023-03-29T01:59:59.243Z,191.31
2023-03-29T02:00:59.284Z,191.38
2023-03-29T02:01:59.316Z,190.85
2023-03-29T02:02:59.396Z,191.88
2023-03-29T02:03:59.316Z,192.00
2023-03-29T02:04:59.906Z,192.34
2023-03-29T02:05:59.370Z,193.51
2023-03-29T02:06:59.409Z,191.67
2023-03-29T02:07:59.401Z,193.08
2023-03-29T02:08:59.430Z,192.92
2023-03-29T02:09:59.475Z,192.56
2023-03-29T02:11:00.054Z,192.52
2023-03-29T02:11:59.521Z,193.24
2023-03-29T02:12:59.543Z,193.07
2023-03-29T02:13:59.573Z,193.09
2023-03-29T02:14:59.598Z,192.96
2023-03-29T02:16:00.474Z,193.30
2023-03-29T02:16:59.909Z,192.71
2023-03-29T02:17:59.761Z,193.11
2023-03-29T02:18:59.714Z,193.27
2023-03-29T02:19:59.747Z,193.72
2023-03-29T02:20:59.916Z,193.34
2023-03-29T02:21:59.807Z,193.21
2023-03-29T02:22:59.833Z,193.34
2023-03-29T02:23:59.856Z,192.75
2023-03-29T02:24:59.888Z,192.84
2023-03-29T02:25:59.902Z,194.42
2023-03-29T02:26:59.931Z,194.14
2023-03-29T02:27:59.957Z,193.72
2023-03-29T02:28:59.987Z,194.61
2023-03-29T02:30:01.264Z,193.11
2023-03-29T02:31:00.291Z,193.60
2023-03-29T02:32:00.051Z,191.78
2023-03-29T02:33:00.235Z,192.48
2023-03-29T02:34:00.144Z,193.94
2023-03-29T02:35:00.153Z,193.79
2023-03-29T02:36:00.212Z,194.16
2023-03-29T02:37:00.220Z,193.73
2023-03-29T02:38:00.230Z,193.66
2023-03-29T02:39:00.264Z,193.11
2023-03-29T02:40:00.295Z,192.11
2023-03-29T02:41:01.152Z,193.34
2023-03-29T02:42:00.439Z,192.82
2023-03-29T02:43:00.386Z,191.20
2023-03-29T02:44:01.407Z,192.88
2023-03-29T02:45:00.447Z,193.44
2023-03-29T02:46:00.484Z,192.90
2023-03-29T02:47:00.550Z,193.40
2023-03-29T02:48:00.631Z,192.91
2023-03-29T02:49:00.568Z,192.52
2023-03-29T02:50:00.609Z,194.16
2023-03-29T02:51:00.804Z,193.87
2023-03-29T02:52:00.651Z,192.94
2023-03-29T02:53:00.695Z,193.34
2023-03-29T02:54:00.713Z,193.56
2023-03-29T02:55:00.758Z,193.78
2023-03-29T02:56:00.830Z,193.55
2023-03-29T02:57:00.867Z,193.18
2023-03-29T02:58:00.827Z,194.10
2023-03-29T02:59:00.852Z,193.04
2023-03-29T03:00:01.158Z,193.64
2023-03-29T03:01:01.228Z,193.00
2023-03-29T03:02:02.035Z,192.43
2023-03-29T03:03:02.006Z,192.66
2023-03-29T03:04:01.036Z,191.45
2023-03-29T03:05:01.036Z,191.62
2023-03-29T03:06:01.041Z,191.86
2023-03-29T03:07:01.053Z,191.93
2023-03-29T03:08:01.072Z,189.95
2023-03-29T03:09:01.090Z,189.98
2023-03-29T03:10:01.105Z,190.19
2023-03-29T03:11:01.294Z,190.55
2023-03-29T03:12:01.115Z,189.87
2023-03-29T03:13:01.130Z,189.13
2023-03-29T03:14:01.140Z,188.71
2023-03-29T03:15:01.160Z,188.39
2023-03-29T03:16:01.929Z,188.98
2023-03-29T03:17:03.898Z,189.16
2023-03-29T03:18:01.149Z,189.24
2023-03-29T03:19:01.090Z,189.37
2023-03-29T03:20:01.070Z,188.51
2023-03-29T03:21:01.280Z,188.73
2023-03-29T03:22:01.009Z,186.85
2023-03-29T03:23:01.004Z,188.61
2023-03-29T03:24:00.976Z,187.39
2023-03-29T03:25:00.955Z,187.74
2023-03-29T03:26:00.939Z,187.97
2023-03-29T03:27:00.913Z,186.64
2023-03-29T03:28:00.877Z,187.16
2023-03-29T03:29:00.873Z,188.16
2023-03-29T03:30:01.080Z,187.01
2023-03-29T03:31:00.976Z,187.94
2023-03-29T03:32:00.835Z,188.63
2023-03-29T03:33:00.798Z,188.35
2023-03-29T03:34:00.760Z,187.12
2023-03-29T03:35:00.735Z,188.40
2023-03-29T03:36:00.751Z,187.49
2023-03-29T03:37:00.700Z,187.01
2023-03-29T03:38:00.683Z,188.47
2023-03-29T03:39:00.658Z,188.51
2023-03-29T03:40:00.721Z,187.55
2023-03-29T03:41:00.950Z,188.39
2023-03-29T03:42:00.591Z,188.24
2023-03-29T03:43:00.581Z,188.05
2023-03-29T03:44:00.558Z,187.93
2023-03-29T03:45:00.523Z,188.06
2023-03-29T03:46:00.561Z,188.62
2023-03-29T03:47:00.499Z,188.58
2023-03-29T03:48:00.535Z,187.54
2023-03-29T03:49:00.429Z,188.51
2023-03-29T03:50:00.400Z,188.55
2023-03-29T03:51:00.709Z,187.93
2023-03-29T03:52:00.353Z,188.21
2023-03-29T03:53:00.326Z,188.44
2023-03-29T03:54:00.306Z,187.78
2023-03-29T03:55:00.306Z,187.81
2023-03-29T03:56:00.249Z,188.24
2023-03-29T03:57:00.254Z,187.67
2023-03-29T03:58:00.196Z,188.10
2023-03-29T03:59:00.182Z,188.36
2023-03-29T04:00:00.215Z,187.16
2023-03-29T04:01:00.249Z,188.69
2023-03-29T04:02:00.196Z,188.13
2023-03-29T04:03:00.134Z,187.27
2023-03-29T04:04:00.120Z,188.37
2023-03-29T04:05:00.002Z,188.54
2023-03-29T04:05:59.970Z,188.40
2023-03-29T04:06:59.946Z,188.11
2023-03-29T04:07:59.924Z,187.80
2023-03-29T04:08:59.970Z,186.73
2023-03-29T04:09:59.858Z,187.98
2023-03-29T04:11:00.105Z,187.72
2023-03-29T04:11:59.813Z,187.13
2023-03-29T04:12:59.796Z,187.07
2023-03-29T04:13:59.762Z,187.81
2023-03-29T04:14:59.734Z,187.34
2023-03-29T04:16:01.515Z,187.49
2023-03-29T04:16:59.679Z,188.04
2023-03-29T04:17:59.714Z,188.51
2023-03-29T04:18:59.669Z,188.17
2023-03-29T04:19:59.589Z,187.03
2023-03-29T04:20:59.664Z,187.46
2023-03-29T04:21:59.531Z,187.61
2023-03-29T04:22:59.504Z,187.25
2023-03-29T04:23:59.485Z,187.48
2023-03-29T04:24:59.448Z,187.38
2023-03-29T04:25:59.423Z,187.64
2023-03-29T04:26:59.398Z,187.12
2023-03-29T04:27:59.381Z,187.58
2023-03-29T04:28:59.352Z,188.43
2023-03-29T04:29:59.323Z,187.65
2023-03-29T04:30:59.311Z,188.08
2023-03-29T04:31:59.276Z,187.72
2023-03-29T04:32:59.265Z,187.72
2023-03-29T04:34:00.409Z,188.63
2023-03-29T04:34:59.251Z,188.47
2023-03-29T04:35:59.337Z,188.76
2023-03-29T04:36:59.234Z,188.83
2023-03-29T04:37:59.241Z,187.83
2023-03-29T04:38:59.231Z,188.95
2023-03-29T04:39:59.991Z,188.84
2023-03-29T04:40:59.294Z,187.72
2023-03-29T04:41:59.220Z,188.10
2023-03-29T04:42:59.227Z,187.32
2023-03-29T04:43:59.298Z,187.30
2023-03-29T04:44:59.253Z,188.35
2023-03-29T04:45:59.237Z,187.92
2023-03-29T04:46:59.222Z,187.72
2023-03-29T04:47:59.254Z,188.99
2023-03-29T04:48:59.233Z,188.03
2023-03-29T04:49:59.234Z,188.15
2023-03-29T04:50:59.296Z,188.10
2023-03-29T04:51:59.222Z,188.72
2023-03-29T04:52:59.230Z,189.14
2023-03-29T04:53:59.237Z,187.64
2023-03-29T04:54:59.232Z,187.58
2023-03-29T04:55:59.236Z,188.33
2023-03-29T04:56:59.264Z,187.62
2023-03-29T04:57:59.239Z,187.42
2023-03-29T04:58:59.263Z,187.72
2023-03-29T04:59:59.267Z,187.54
2023-03-29T05:00:59.359Z,187.87
2023-03-29T05:01:59.262Z,188.55
2023-03-29T05:02:59.271Z,188.80
2023-03-29T05:03:59.261Z,188.60
2023-03-29T05:04:59.347Z,188.05
2023-03-29T05:05:59.246Z,188.95
2023-03-29T05:06:59.252Z,188.58
2023-03-29T05:07:59.253Z,187.30
2023-03-29T05:08:59.467Z,187.44
2023-03-29T05:09:59.267Z,189.03
2023-03-29T05:10:59.347Z,187.31
2023-03-29T05:11:59.269Z,187.65
2023-03-29T05:12:59.262Z,187.15
2023-03-29T05:13:59.276Z,187.55
2023-03-29T05:14:59.296Z,187.90
2023-03-29T05:15:59.324Z,187.68
2023-03-29T05:16:59.302Z,187.11
2023-03-29T05:17:59.413Z,188.53
2023-03-29T05:18:59.323Z,188.46
2023-03-29T05:19:59.339Z,185.23
2023-03-29T05:20:59.508Z,185.35
2023-03-29T05:21:59.350Z,185.25
2023-03-29T05:22:59.368Z,182.57
2023-03-29T05:23:59.370Z,183.41
2023-03-29T05:24:59.396Z,183.13
2023-03-29T05:25:59.391Z,186.63
2023-03-29T05:26:59.415Z,189.80
2023-03-29T05:27:59.414Z,187.46
2023-03-29T05:28:59.412Z,188.32
2023-03-29T05:29:59.431Z,184.06
2023-03-29T05:30:59.597Z,168.57
2023-03-29T05:31:59.542Z,135.33
2023-03-29T05:32:59.602Z,105.10
2023-03-29T05:33:59.569Z,90.53
2023-03-29T05:35:00.437Z,90.99
2023-03-29T05:35:59.610Z,109.05
2023-03-29T05:36:59.643Z,124.76
2023-03-29T05:37:59.692Z,133.73
2023-03-29T05:38:59.756Z,143.59
2023-03-29T05:40:05.702Z,151.47
2023-03-29T05:41:00.941Z,151.77
2023-03-29T05:41:59.721Z,153.87
2023-03-29T05:42:59.707Z,159.03
2023-03-29T05:43:59.688Z,170.76
2023-03-29T05:44:59.687Z,191.68
2023-03-29T05:45:59.678Z,202.75
2023-03-29T05:46:59.621Z,212.28
2023-03-29T05:47:59.615Z,216.99
2023-03-29T05:48:59.568Z,224.70
2023-03-29T05:49:59.540Z,235.37
2023-03-29T05:50:59.512Z,240.52
2023-03-29T05:51:59.552Z,248.22
2023-03-29T05:52:59.535Z,250.00
2023-03-29T05:53:59.987Z,230.84
2023-03-29T05:55:00.399Z,219.83
2023-03-29T05:55:59.510Z,205.27
2023-03-29T05:56:59.513Z,183.22
2023-03-29T05:57:59.492Z,196.15
2023-03-29T05:58:59.510Z,209.75
2023-03-29T05:59:59.510Z,215.13
2023-03-29T06:00:59.510Z,216.04
2023-03-29T06:01:59.488Z,217.69
2023-03-29T06:03:09.856Z,222.21
2023-03-29T06:04:00.542Z,222.44
2023-03-29T06:04:59.510Z,224.86
2023-03-29T06:05:59.460Z,229.74
2023-03-29T06:06:59.437Z,238.61
2023-03-29T06:07:59.396Z,254.25
2023-03-29T06:08:59.366Z,250.00
2023-03-29T06:09:59.331Z,250.00
2023-03-29T06:10:59.961Z,250.00
2023-03-29T06:11:59.281Z,250.00
2023-03-29T06:12:59.239Z,250.00
2023-03-29T06:13:59.212Z,249.91
2023-03-29T06:14:59.183Z,249.98
2023-03-29T06:15:59.143Z,250.00
2023-03-29T06:16:59.175Z,250.00
2023-03-29T06:17:59.106Z,250.00
2023-03-29T06:18:59.054Z,250.00
2023-03-29T06:19:59.099Z,250.00
2023-03-29T06:20:59.045Z,250.94
2023-03-29T06:21:58.992Z,240.93
2023-03-29T06:22:59.030Z,241.99
2023-03-29T06:23:58.936Z,249.98
2023-03-29T06:24:58.904Z,247.78
2023-03-29T06:25:58.920Z,211.09
2023-03-29T06:26:58.972Z,210.15
2023-03-29T06:27:59.998Z,212.68
2023-03-29T06:28:59.991Z,215.84
2023-03-29T06:29:59.091Z,215.77
2023-03-29T06:30:59.192Z,215.63
2023-03-29T06:31:59.237Z,216.08
2023-03-29T06:32:59.254Z,216.49
2023-03-29T06:33:59.233Z,215.80
2023-03-29T06:34:59.239Z,218.00
2023-03-29T06:35:59.960Z,218.33
2023-03-29T06:36:59.260Z,219.39
2023-03-29T06:37:59.270Z,221.17
2023-03-29T06:38:59.280Z,222.76
2023-03-29T06:39:59.296Z,224.11
2023-03-29T06:40:59.326Z,224.93
2023-03-29T06:42:01.982Z,225.73
2023-03-29T06:43:00.334Z,225.79
2023-03-29T06:43:59.235Z,225.99
2023-03-29T06:44:59.199Z,226.40
2023-03-29T06:45:59.214Z,226.98
2023-03-29T06:46:59.154Z,228.57
2023-03-29T06:47:59.191Z,229.83
2023-03-29T06:48:59.094Z,230.40
2023-03-29T06:49:59.072Z,231.07
2023-03-29T06:50:59.043Z,232.51
2023-03-29T06:51:59.294Z,233.12
2023-03-29T06:52:58.986Z,234.52
2023-03-29T06:53:58.971Z,235.32
2023-03-29T06:54:58.942Z,236.09
2023-03-29T06:55:58.904Z,236.59
2023-03-29T06:56:58.937Z,237.23
2023-03-29T06:58:01.734Z,236.74
2023-03-29T06:58:58.829Z,236.79
2023-03-29T06:59:58.803Z,236.83
2023-03-29T07:00:58.776Z,236.85
2023-03-29T07:01:58.896Z,236.88
2023-03-29T07:02:58.855Z,237.86
2023-03-29T07:03:58.731Z,237.90
2023-03-29T07:04:58.694Z,237.39
2023-03-29T07:05:58.741Z,238.40
2023-03-29T07:06:58.646Z,239.28
2023-03-29T07:07:58.699Z,240.86
2023-03-29T07:08:58.608Z,240.83
2023-03-29T07:09:58.623Z,241.11
2023-03-29T07:10:58.560Z,241.44
2023-03-29T07:11:58.526Z,242.38
2023-03-29T07:12:58.498Z,242.69
2023-03-29T07:13:58.463Z,244.40
2023-03-29T07:14:58.434Z,245.66
2023-03-29T07:15:58.456Z,244.03
2023-03-29T07:16:58.423Z,243.13
2023-03-29T07:17:58.431Z,239.06
2023-03-29T07:18:58.348Z,241.01
2023-03-29T07:19:58.356Z,242.97
2023-03-29T07:20:58.302Z,231.90
2023-03-29T07:21:58.283Z,207.20
2023-03-29T07:22:58.264Z,168.17
2023-03-29T07:23:58.239Z,138.56
2023-03-29T07:24:58.229Z,126.82
2023-03-29T07:25:58.212Z,129.40
2023-03-29T07:27:04.047Z,132.69
2023-03-29T07:27:59.391Z,132.86
2023-03-29T07:28:58.171Z,133.95
2023-03-29T07:29:58.165Z,136.80
2023-03-29T07:30:58.146Z,143.01
2023-03-29T07:31:58.139Z,151.22
2023-03-29T07:32:58.250Z,152.56
2023-03-29T07:33:58.145Z,156.49
2023-03-29T07:34:58.093Z,159.77
2023-03-29T07:35:58.187Z,162.38
2023-03-29T07:36:58.066Z,166.07
2023-03-29T07:37:58.044Z,168.54
2023-03-29T07:38:58.027Z,165.38
2023-03-29T07:39:58.045Z,162.36
2023-03-29T07:40:58.094Z,166.91
2023-03-29T07:41:58.164Z,170.26
2023-03-29T07:42:58.192Z,170.99
2023-03-29T07:43:58.294Z,170.46
2023-03-29T07:44:58.337Z,173.61
2023-03-29T07:45:58.358Z,176.39
2023-03-29T07:46:58.372Z,177.91
2023-03-29T07:47:58.674Z,179.17
2023-03-29T07:48:58.424Z,179.53
2023-03-29T07:49:58.458Z,181.20
2023-03-29T07:50:58.498Z,183.40
2023-03-29T07:51:58.510Z,184.40
2023-03-29T07:52:58.536Z,184.82
2023-03-29T07:53:58.602Z,185.90
2023-03-29T07:54:58.576Z,186.78
2023-03-29T07:55:58.619Z,186.54
2023-03-29T07:56:58.675Z,185.64
2023-03-29T07:57:58.637Z,186.71
2023-03-29T07:58:58.670Z,187.26
2023-03-29T07:59:58.685Z,187.44
2023-03-29T08:00:58.782Z,185.20
2023-03-29T08:01:58.713Z,185.93
2023-03-29T08:02:59.555Z,186.82
2023-03-29T08:03:58.856Z,188.04
2023-03-29T08:04:58.771Z,189.81
2023-03-29T08:05:58.755Z,190.36
2023-03-29T08:06:58.777Z,190.66
2023-03-29T08:07:58.785Z,190.80
2023-03-29T08:08:58.791Z,191.77
2023-03-29T08:09:58.795Z,192.98
2023-03-29T08:10:58.808Z,186.62
2023-03-29T08:11:58.814Z,185.57
2023-03-29T08:12:59.033Z,187.05
2023-03-29T08:13:58.836Z,177.28
2023-03-29T08:14:58.839Z,173.43
2023-03-29T08:15:58.830Z,160.57
2023-03-29T08:16:58.898Z,149.10
2023-03-29T08:17:58.891Z,115.02
2023-03-29T08:18:59.539Z,106.98
2023-03-29T08:19:58.987Z,89.34
2023-03-29T08:21:00.855Z,89.34
2023-03-29T08:21:58.921Z,90.41
2023-03-29T08:22:58.891Z,92.62
2023-03-29T08:23:58.890Z,96.91
2023-03-29T08:24:58.860Z,109.24
2023-03-29T08:25:59.534Z,116.25
2023-03-29T08:26:58.822Z,111.30
2023-03-29T08:27:58.829Z,119.03
2023-03-29T08:28:58.796Z,128.10
2023-03-29T08:29:58.777Z,134.02
2023-03-29T08:30:58.867Z,138.74
2023-03-29T08:31:58.749Z,145.72
2023-03-29T08:32:58.741Z,151.76
2023-03-29T08:33:58.734Z,153.65
2023-03-29T08:34:58.775Z,158.58
2023-03-29T08:35:58.878Z,162.27
2023-03-29T08:36:59.466Z,166.51
2023-03-29T08:37:58.837Z,169.36
2023-03-29T08:38:58.844Z,172.49
2023-03-29T08:39:58.856Z,175.45
2023-03-29T08:40:58.844Z,177.95
2023-03-29T08:41:58.857Z,181.45
2023-03-29T08:42:58.841Z,183.27
2023-03-29T08:43:58.825Z,187.63
2023-03-29T08:44:58.819Z,191.19
2023-03-29T08:45:58.817Z,194.98
2023-03-29T08:46:59.697Z,199.04
2023-03-29T08:47:58.800Z,201.51
2023-03-29T08:48:58.730Z,204.11
2023-03-29T08:49:58.703Z,207.68
2023-03-29T08:50:58.716Z,210.50
2023-03-29T08:51:58.724Z,213.50
2023-03-29T08:53:01.542Z,215.94
2023-03-29T08:53:58.756Z,219.36
2023-03-29T08:54:59.551Z,221.60
2023-03-29T08:55:58.655Z,224.15
2023-03-29T08:56:59.582Z,227.67
2023-03-29T08:57:58.598Z,230.12
2023-03-29T08:59:00.482Z,232.39
2023-03-29T08:59:58.541Z,234.94
2023-03-29T09:00:58.499Z,237.93
2023-03-29T09:01:58.540Z,240.17
2023-03-29T09:02:58.513Z,244.38
2023-03-29T09:03:58.449Z,248.23
2023-03-29T09:04:58.370Z,250.00
2023-03-29T09:05:58.337Z,248.77
2023-03-29T09:06:58.308Z,250.00
2023-03-29T09:07:58.291Z,249.19
2023-03-29T09:08:58.321Z,249.36
2023-03-29T09:09:58.342Z,249.34
2023-03-29T09:10:58.372Z,249.13
2023-03-29T09:11:58.412Z,250.42
2023-03-29T09:12:58.438Z,249.36
2023-03-29T09:13:58.458Z,249.97
2023-03-29T09:14:58.483Z,249.49
2023-03-29T09:15:58.559Z,249.48
2023-03-29T09:16:58.566Z,249.52
2023-03-29T09:17:58.667Z,249.42
2023-03-29T09:18:58.633Z,248.00
2023-03-29T09:19:58.664Z,249.78
2023-03-29T09:20:58.785Z,249.99
2023-03-29T09:21:58.747Z,249.60
2023-03-29T09:22:59.557Z,249.79
2023-03-29T09:23:58.822Z,248.64
2023-03-29T09:24:58.823Z,247.92
2023-03-29T09:25:59.618Z,247.87
2023-03-29T09:26:58.912Z,248.18
2023-03-29T09:27:58.926Z,248.32
2023-03-29T09:28:59.001Z,247.98
2023-03-29T09:29:59.070Z,247.77
2023-03-29T09:30:58.930Z,248.25
2023-03-29T09:31:58.953Z,247.66
2023-03-29T09:32:58.937Z,247.73
2023-03-29T09:33:58.838Z,247.72
2023-03-29T09:34:58.808Z,246.65
2023-03-29T09:35:58.839Z,246.41
2023-03-29T09:36:58.778Z,246.51
2023-03-29T09:37:58.763Z,245.48
2023-03-29T09:38:58.739Z,246.87
2023-03-29T09:39:58.715Z,245.78
2023-03-29T09:40:58.833Z,245.43
2023-03-29T09:41:58.683Z,245.67
2023-03-29T09:42:58.692Z,245.20
2023-03-29T09:43:59.086Z,243.26
2023-03-29T09:44:58.653Z,243.58
2023-03-29T09:45:58.675Z,244.48
2023-03-29T09:46:58.653Z,244.24
2023-03-29T09:47:58.696Z,243.41
2023-03-29T09:48:58.657Z,241.96
2023-03-29T09:49:58.637Z,242.70
2023-03-29T09:50:58.624Z,241.79
2023-03-29T09:51:58.628Z,241.62
2023-03-29T09:52:58.666Z,239.90
2023-03-29T09:53:59.071Z,242.39
2023-03-29T09:54:58.621Z,241.97
2023-03-29T09:55:58.643Z,241.00
2023-03-29T09:56:58.685Z,239.37
2023-03-29T09:57:59.579Z,240.68
2023-03-29T09:58:58.630Z,238.61
2023-03-29T09:59:58.623Z,240.26
2023-03-29T10:00:58.664Z,238.66
2023-03-29T10:01:59.564Z,238.78
2023-03-29T10:02:58.593Z,238.92
2023-03-29T10:03:58.531Z,239.02
2023-03-29T10:04:58.489Z,238.72
2023-03-29T10:05:58.464Z,238.64
2023-03-29T10:06:58.424Z,238.58
2023-03-29T10:07:58.397Z,237.53
2023-03-29T10:08:58.367Z,237.11
2023-03-29T10:09:58.431Z,236.62
2023-03-29T10:10:58.328Z,236.60
2023-03-29T10:11:58.477Z,236.85
2023-03-29T10:12:58.268Z,236.46
2023-03-29T10:13:58.297Z,236.45
2023-03-29T10:14:58.206Z,235.67
2023-03-29T10:15:58.180Z,235.52
2023-03-29T10:16:58.179Z,234.83
2023-03-29T10:17:58.152Z,233.66
2023-03-29T10:18:58.106Z,234.25
2023-03-29T10:19:58.085Z,234.63
2023-03-29T10:20:58.051Z,233.42
2023-03-29T10:21:58.031Z,234.36
2023-03-29T10:22:58.029Z,231.94
2023-03-29T10:23:57.987Z,232.79
2023-03-29T10:24:57.979Z,231.36
2023-03-29T10:25:57.940Z,231.32
2023-03-29T10:26:57.928Z,231.03
2023-03-29T10:27:57.895Z,230.36
2023-03-29T10:28:57.863Z,229.76
2023-03-29T10:29:58.100Z,229.94
2023-03-29T10:30:57.892Z,228.97
2023-03-29T10:31:57.889Z,227.69
2023-03-29T10:32:57.830Z,228.41
2023-03-29T10:33:57.785Z,227.63
2023-03-29T10:34:57.803Z,226.72
2023-03-29T10:35:57.899Z,227.77
2023-03-29T10:36:57.788Z,227.41
2023-03-29T10:37:57.778Z,226.94
2023-03-29T10:38:57.781Z,224.44
2023-03-29T10:39:57.779Z,226.09
2023-03-29T10:40:57.777Z,225.15
2023-03-29T10:41:57.781Z,225.13
2023-03-29T10:42:57.782Z,225.51
2023-03-29T10:43:57.774Z,224.86
2023-03-29T10:44:57.784Z,223.46
2023-03-29T10:45:57.878Z,222.17
2023-03-29T10:46:58.592Z,222.44
2023-03-29T10:47:57.844Z,222.74
2023-03-29T10:48:57.798Z,222.01
2023-03-29T10:49:57.789Z,219.85
2023-03-29T10:50:57.792Z,221.19
2023-03-29T10:51:57.787Z,218.52
2023-03-29T10:52:57.793Z,218.85
2023-03-29T10:53:57.784Z,216.23
2023-03-29T10:54:57.794Z,218.02
2023-03-29T10:55:57.786Z,218.01
2023-03-29T10:56:57.917Z,216.45
2023-03-29T10:57:57.782Z,217.66
2023-03-29T10:58:57.791Z,216.35
2023-03-29T10:59:57.800Z,215.86
2023-03-29T11:00:57.782Z,215.19
2023-03-29T11:01:57.874Z,215.49
2023-03-29T11:02:57.863Z,214.97
2023-03-29T11:03:57.972Z,213.79
2023-03-29T11:04:57.829Z,214.15
2023-03-29T11:05:57.803Z,213.95
2023-03-29T11:06:57.817Z,213.34
2023-03-29T11:07:57.809Z,212.44
2023-03-29T11:08:57.831Z,212.75
2023-03-29T11:09:57.815Z,212.77
2023-03-29T11:10:57.837Z,211.95
2023-03-29T11:12:08.529Z,211.61
2023-03-29T11:12:58.803Z,211.67
2023-03-29T11:13:59.821Z,211.66
2023-03-29T11:14:57.743Z,210.20
2023-03-29T11:15:57.785Z,210.83
2023-03-29T11:16:57.689Z,209.76
2023-03-29T11:17:57.730Z,210.33
2023-03-29T11:18:57.639Z,208.79
2023-03-29T11:19:57.633Z,209.18
2023-03-29T11:20:57.596Z,209.22
2023-03-29T11:21:57.598Z,208.34
2023-03-29T11:22:57.619Z,208.21
2023-03-29T11:23:57.601Z,208.27
2023-03-29T11:24:57.657Z,206.18
2023-03-29T11:25:57.611Z,206.84
2023-03-29T11:26:57.608Z,206.87
2023-03-29T11:27:57.615Z,206.23
2023-03-29T11:28:57.684Z,205.17
2023-03-29T11:29:57.615Z,206.96
2023-03-29T11:30:57.665Z,205.73
2023-03-29T11:31:57.692Z,205.80
2023-03-29T11:32:57.638Z,205.23
2023-03-29T11:33:57.633Z,204.74
2023-03-29T11:34:57.661Z,204.71
2023-03-29T11:35:57.668Z,204.42
2023-03-29T11:36:57.636Z,204.86
2023-03-29T11:37:57.638Z,204.47
2023-03-29T11:38:57.639Z,204.18
2023-03-29T11:39:57.643Z,203.24
2023-03-29T11:40:57.738Z,203.74
2023-03-29T11:41:57.669Z,203.33
2023-03-29T11:42:57.685Z,203.63
2023-03-29T11:43:57.686Z,202.66
2023-03-29T11:44:57.706Z,202.83
2023-03-29T11:45:57.772Z,201.98
2023-03-29T11:46:57.808Z,202.36
2023-03-29T11:47:57.777Z,202.08
2023-03-29T11:48:57.757Z,202.22
2023-03-29T11:49:57.799Z,201.09
2023-03-29T11:50:57.786Z,201.34
2023-03-29T11:51:57.811Z,202.01
2023-03-29T11:52:57.802Z,200.43
2023-03-29T11:53:57.811Z,200.93
2023-03-29T11:54:57.865Z,200.79
2023-03-29T11:55:58.122Z,200.86
2023-03-29T11:56:57.855Z,200.64
2023-03-29T11:57:57.878Z,199.47
2023-03-29T11:58:57.902Z,200.17
2023-03-29T11:59:57.903Z,198.64
2023-03-29T12:00:57.947Z,200.04
2023-03-29T12:01:57.972Z,198.75
2023-03-29T12:02:58.043Z,198.83
2023-03-29T12:03:58.069Z,198.95
2023-03-29T12:04:57.996Z,198.15
2023-03-29T12:05:58.024Z,198.11
2023-03-29T12:06:58.037Z,198.53
2023-03-29T12:07:58.053Z,197.84
2023-03-29T12:08:58.073Z,197.90
2023-03-29T12:09:58.122Z,197.16
2023-03-29T12:10:58.107Z,197.27
2023-03-29T12:11:58.130Z,196.99
2023-03-29T12:12:58.157Z,196.79
2023-03-29T12:13:58.163Z,196.35
2023-03-29T12:14:58.269Z,195.82
2023-03-29T12:15:58.209Z,195.88
2023-03-29T12:16:58.245Z,195.97
2023-03-29T12:17:58.283Z,195.07
2023-03-29T12:18:58.277Z,195.43
2023-03-29T12:19:58.289Z,195.10
2023-03-29T12:20:58.301Z,194.33
2023-03-29T12:21:58.315Z,194.62
2023-03-29T12:22:58.339Z,194.39
2023-03-29T12:23:58.349Z,193.85
2023-03-29T12:24:58.380Z,193.80
2023-03-29T12:25:58.398Z,193.50
2023-03-29T12:26:58.421Z,193.08
2023-03-29T12:27:58.441Z,193.66
2023-03-29T12:28:58.455Z,192.48